Time;durP1;ratioP1;P1;durP2;ratioP2;P2;SDS_P1;SDS_P2;PMS_P1;PMS_P2;Temp;Humidity;BMP_temperature;BMP_pressure;BME280_temperature;BME280_humidity;BME280_pressure;Samples;Min_cycle;Max_cycle;Signal;HPM_P1;HPM_P2
2023/07/30 00:02:25;;;;;;;9.05;5.25;;;;;;;14.94;100.00;100031.47;4977799;28;20784;-77
2023/07/30 00:04:58;;;;;;;8.13;5.05;;;;;;;14.87;100.00;100031.13;4984656;28;20426;-77
2023/07/30 00:07:31;;;;;;;8.30;5.13;;;;;;;14.84;100.00;100039.22;4981160;28;20437;-77
2023/07/30 00:10:07;;;;;;;9.73;5.63;;;;;;;14.80;100.00;100039.03;5008407;28;20424;-77
2023/07/30 00:12:35;;;;;;;8.70;5.38;;;;;;;14.87;100.00;100041.28;4976802;28;20432;-77
2023/07/30 00:15:09;;;;;;;9.10;5.40;;;;;;;14.84;100.00;100044.69;5007507;28;20446;-77
2023/07/30 00:17:42;;;;;;;10.93;5.20;;;;;;;14.87;100.00;100046.78;4995340;28;20440;-77
2023/07/30 00:20:11;;;;;;;12.68;5.70;;;;;;;14.81;100.00;100048.09;4978253;28;20450;-77
2023/07/30 00:22:44;;;;;;;8.02;5.55;;;;;;;14.89;100.00;100047.28;4980117;28;20913;-77
2023/07/30 00:25:19;;;;;;;8.70;5.70;;;;;;;14.87;100.00;100047.56;4977973;28;21186;-77
2023/07/30 00:27:47;;;;;;;8.00;5.47;;;;;;;14.89;100.00;100036.31;4974427;28;20412;-77
2023/07/30 00:30:20;;;;;;;10.23;6.18;;;;;;;14.86;100.00;100045.16;4979792;28;20437;-77
2023/07/30 00:32:48;;;;;;;9.20;5.85;;;;;;;14.95;100.00;100049.50;4978733;28;20419;-77
2023/07/30 00:35:22;;;;;;;9.68;5.97;;;;;;;14.95;100.00;100054.19;4976887;28;20426;-77
2023/07/30 00:37:55;;;;;;;9.77;5.93;;;;;;;14.94;100.00;100041.59;4980461;28;20429;-78
2023/07/30 00:40:25;;;;;;;13.80;6.47;;;;;;;14.88;100.00;100046.44;5013221;28;20427;-78
2023/07/30 00:42:58;;;;;;;9.23;6.05;;;;;;;14.93;100.00;100040.00;4974519;28;20432;-76
2023/07/30 00:45:32;;;;;;;9.88;6.20;;;;;;;14.98;100.00;100033.56;4974725;28;20474;-77
2023/07/30 00:48:01;;;;;;;11.20;6.32;;;;;;;14.96;100.00;100044.84;4979315;28;20421;-77
2023/07/30 00:50:34;;;;;;;9.57;5.82;;;;;;;14.98;100.00;100048.03;4992356;28;20440;-77
2023/07/30 00:53:10;;;;;;;9.27;6.07;;;;;;;14.94;100.00;100049.81;4975270;28;20446;-77
2023/07/30 00:55:40;;;;;;;8.02;5.45;;;;;;;15.05;100.00;100047.56;4977864;28;20443;-77
2023/07/30 00:58:13;;;;;;;8.57;5.60;;;;;;;15.09;100.00;100046.59;4979568;28;20430;-78
2023/07/30 01:00:47;;;;;;;8.25;5.50;;;;;;;15.08;100.00;100052.38;5006806;28;20428;-77
2023/07/30 01:03:15;;;;;;;9.82;5.07;;;;;;;15.12;100.00;100045.94;4985151;28;20444;-77
2023/07/30 01:05:48;;;;;;;10.25;5.70;;;;;;;15.10;100.00;100055.59;4995625;28;20419;-78
2023/07/30 01:08:21;;;;;;;8.07;5.32;;;;;;;15.05;100.00;100077.69;4979343;28;20433;-78
2023/07/30 01:10:58;;;;;;;12.40;6.10;;;;;;;14.93;100.00;100072.91;4975678;28;20836;-80
2023/07/30 01:13:28;;;;;;;11.32;6.32;;;;;;;14.87;100.00;100047.56;4978913;28;20449;-81
2023/07/30 01:16:03;;;;;;;10.43;5.97;;;;;;;14.88;100.00;100056.63;4979216;28;20786;-80
2023/07/30 01:18:37;;;;;;;10.95;5.35;;;;;;;14.85;100.00;100062.75;4979803;28;20452;-80
2023/07/30 01:21:06;;;;;;;9.43;5.55;;;;;;;14.91;100.00;100062.22;4980637;28;20441;-81
2023/07/30 01:23:39;;;;;;;8.45;5.10;;;;;;;14.94;100.00;100061.59;4979809;28;20431;-81
2023/07/30 01:26:20;;;;;;;8.48;5.10;;;;;;;14.90;100.00;100071.59;4991024;28;21032;-81
2023/07/30 01:28:52;;;;;;;12.63;5.32;;;;;;;14.92;100.00;100066.59;4984485;28;20422;-80
2023/07/30 01:31:28;;;;;;;8.60;4.88;;;;;;;14.92;100.00;100060.31;4976153;28;20965;-81
2023/07/30 01:34:04;;;;;;;9.98;4.72;;;;;;;14.96;100.00;100051.13;4978634;28;20451;-81
2023/07/30 01:36:40;;;;;;;8.75;4.50;;;;;;;14.96;100.00;100048.38;4994137;28;20430;-81
2023/07/30 01:39:14;;;;;;;8.57;4.18;;;;;;;15.00;100.00;100047.72;4977046;28;20418;-81
2023/07/30 01:41:42;;;;;;;8.63;4.32;;;;;;;14.98;100.00;100041.78;4992419;28;20439;-81
2023/07/30 01:44:10;;;;;;;9.02;4.10;;;;;;;15.06;100.00;100035.47;4975048;28;20428;-81
2023/07/30 01:46:38;;;;;;;8.80;4.05;;;;;;;15.02;100.00;100021.59;4977963;28;20425;-82
2023/07/30 01:49:07;;;;;;;10.67;4.23;;;;;;;15.08;100.00;100027.72;5006476;28;20800;-81
2023/07/30 01:51:41;;;;;;;8.57;4.50;;;;;;;15.07;100.00;100026.91;4975405;28;20422;-82
2023/07/30 01:54:14;;;;;;;9.90;4.35;;;;;;;15.00;100.00;100032.09;4974233;28;20924;-79
2023/07/30 01:56:48;;;;;;;6.47;4.18;;;;;;;15.05;100.00;100040.16;4978821;28;20446;-83
2023/07/30 01:59:21;;;;;;;8.85;4.40;;;;;;;15.03;100.00;100050.63;4983488;28;20422;-81
2023/07/30 02:01:50;;;;;;;8.63;4.80;;;;;;;15.02;100.00;100046.25;4977121;28;20429;-81
2023/07/30 02:04:23;;;;;;;10.07;4.55;;;;;;;15.01;100.00;100049.34;4976410;28;20434;-81
2023/07/30 02:06:58;;;;;;;8.53;4.83;;;;;;;14.94;100.00;100042.44;4978117;28;20477;-81
2023/07/30 02:09:26;;;;;;;9.73;4.68;;;;;;;14.97;100.00;100043.72;4981295;28;20414;-82
2023/07/30 02:12:00;;;;;;;11.35;4.95;;;;;;;14.87;100.00;100046.78;4976310;28;20457;-81
2023/07/30 02:14:29;;;;;;;8.25;5.07;;;;;;;14.92;100.00;100052.88;5008042;28;20456;-81
2023/07/30 02:17:02;;;;;;;10.02;5.20;;;;;;;14.90;100.00;100048.88;4978534;28;20458;-80
2023/07/30 02:19:35;;;;;;;14.05;5.22;;;;;;;14.87;100.00;100049.50;4978233;28;20441;-81
2023/07/30 02:22:10;;;;;;;8.27;5.10;;;;;;;14.75;100.00;100042.75;4976332;28;20434;-81
2023/07/30 02:24:43;;;;;;;10.35;5.45;;;;;;;14.73;100.00;100038.75;4976380;28;20435;-80
2023/07/30 02:27:11;;;;;;;9.40;5.15;;;;;;;14.73;100.00;100028.56;5008197;28;20418;-80
2023/07/30 02:29:39;;;;;;;8.82;5.40;;;;;;;14.75;100.00;100041.97;4978523;28;20428;-80
2023/07/30 02:32:13;;;;;;;8.10;4.82;;;;;;;14.71;100.00;100039.06;4978228;28;20447;-81
2023/07/30 02:34:46;;;;;;;8.40;5.20;;;;;;;14.68;100.00;100036.16;4977953;28;20459;-81
2023/07/30 02:37:16;;;;;;;9.48;5.50;;;;;;;14.72;100.00;100035.19;5008683;28;20975;-80
2023/07/30 02:39:44;;;;;;;10.18;5.45;;;;;;;14.73;100.00;100041.47;4977967;28;20431;-80
2023/07/30 02:42:17;;;;;;;9.95;5.53;;;;;;;14.66;100.00;100035.69;4983428;28;20432;-80
2023/07/30 02:44:45;;;;;;;8.93;5.47;;;;;;;14.70;100.00;100042.13;4996090;28;20429;-80
2023/07/30 02:47:18;;;;;;;8.05;5.43;;;;;;;14.70;100.00;100044.88;4995895;28;20431;-81
2023/07/30 02:49:51;;;;;;;11.30;5.68;;;;;;;14.66;100.00;100052.91;4981542;28;20433;-80
2023/07/30 02:52:26;;;;;;;9.23;5.40;;;;;;;14.71;100.00;100043.75;4979658;28;20430;-80
2023/07/30 02:54:59;;;;;;;11.40;5.88;;;;;;;14.76;100.00;100044.38;4997704;28;20431;-80
2023/07/30 02:57:32;;;;;;;11.02;5.43;;;;;;;14.77;100.00;100047.91;4980067;28;20895;-80
2023/07/30 03:00:08;;;;;;;8.90;5.47;;;;;;;14.81;100.00;100048.88;4978671;28;20428;-80
2023/07/30 03:02:36;;;;;;;9.05;5.60;;;;;;;14.83;100.00;100045.81;4986255;28;20435;-80
2023/07/30 03:05:10;;;;;;;9.13;5.80;;;;;;;14.84;100.00;100055.66;4995955;28;20436;-80
2023/07/30 03:07:46;;;;;;;8.85;5.70;;;;;;;14.82;100.00;100057.91;4994551;28;20422;-80
2023/07/30 03:10:19;;;;;;;9.85;6.30;;;;;;;14.79;100.00;100060.16;4980454;28;20463;-80
2023/07/30 03:12:47;;;;;;;10.32;6.40;;;;;;;14.84;100.00;100056.44;4982541;28;20956;-80
2023/07/30 03:15:21;;;;;;;11.43;6.50;;;;;;;14.86;100.00;100059.69;4982142;28;20470;-80
2023/07/30 03:17:54;;;;;;;11.65;6.95;;;;;;;14.95;100.00;100062.41;4981991;28;20426;-80
2023/07/30 03:20:27;;;;;;;9.60;6.70;;;;;;;14.83;100.00;100062.25;4993118;28;20438;-81
2023/07/30 03:23:02;;;;;;;11.50;6.93;;;;;;;14.79;100.00;100059.38;4981107;28;20428;-81
2023/07/30 03:25:35;;;;;;;11.88;7.00;;;;;;;14.78;100.00;100063.22;4976630;28;20423;-81
2023/07/30 03:28:08;;;;;;;11.57;7.13;;;;;;;14.72;100.00;100062.59;4979589;28;20432;-81
2023/07/30 03:30:42;;;;;;;12.40;7.03;;;;;;;14.70;100.00;100064.03;4980594;28;20455;-81
2023/07/30 03:33:16;;;;;;;10.65;6.97;;;;;;;14.62;100.00;100071.94;4978579;28;20422;-80
2023/07/30 03:35:49;;;;;;;12.27;7.47;;;;;;;14.69;100.00;100067.91;4980767;28;20460;-80
2023/07/30 03:38:24;;;;;;;11.30;7.40;;;;;;;14.67;100.00;100060.00;4980198;28;20794;-80
2023/07/30 03:40:57;;;;;;;11.55;7.60;;;;;;;14.66;100.00;100060.34;4980546;28;20484;-81
2023/07/30 03:43:25;;;;;;;14.50;7.75;;;;;;;14.61;100.00;100074.94;4980568;28;20426;-80
2023/07/30 03:45:59;;;;;;;15.97;8.47;;;;;;;14.63;100.00;100070.78;4979484;28;20526;-80
2023/07/30 03:48:27;;;;;;;13.85;7.53;;;;;;;14.57;100.00;100072.06;5011017;28;20424;-80
2023/07/30 03:51:01;;;;;;;14.47;9.07;;;;;;;14.61;100.00;100069.47;4979217;28;20910;-81
2023/07/30 03:53:35;;;;;;;15.75;8.70;;;;;;;14.58;100.00;100089.28;4979056;28;20921;-80
2023/07/30 03:56:04;;;;;;;13.43;9.10;;;;;;;14.53;100.00;100086.69;4980940;28;20465;-81
2023/07/30 03:58:37;;;;;;;15.65;9.50;;;;;;;14.52;100.00;100088.63;4978435;28;20460;-81
2023/07/30 04:01:10;;;;;;;14.90;9.10;;;;;;;14.51;100.00;100078.81;4976279;28;20463;-80
2023/07/30 04:03:44;;;;;;;14.18;9.85;;;;;;;14.53;100.00;100083.97;4978130;28;20851;-80
2023/07/30 04:06:17;;;;;;;15.40;9.80;;;;;;;14.54;100.00;100085.56;4980830;28;20422;-80
2023/07/30 04:08:52;;;;;;;13.63;8.97;;;;;;;14.53;100.00;100084.78;4979273;28;20985;-81
2023/07/30 04:11:26;;;;;;;15.20;9.73;;;;;;;14.56;100.00;100091.56;4979079;28;20436;-81
2023/07/30 04:13:59;;;;;;;13.70;9.30;;;;;;;14.51;100.00;100083.50;4979100;28;20485;-81
2023/07/30 04:16:27;;;;;;;14.43;9.53;;;;;;;14.52;100.00;100085.91;5010086;28;20865;-80
2023/07/30 04:19:00;;;;;;;13.88;9.10;;;;;;;14.53;100.00;100083.97;4979969;28;20426;-81
2023/07/30 04:21:33;;;;;;;13.23;9.18;;;;;;;14.53;100.00;100086.69;4978853;28;20808;-80
2023/07/30 04:24:08;;;;;;;15.85;9.23;;;;;;;14.52;100.00;100098.78;4979395;28;20471;-81
2023/07/30 04:26:41;;;;;;;15.57;9.20;;;;;;;14.53;100.00;100093.00;4994959;28;20429;-80
2023/07/30 04:29:16;;;;;;;16.10;10.23;;;;;;;14.57;100.00;100096.69;4978480;28;20435;-80
2023/07/30 04:31:50;;;;;;;17.35;9.30;;;;;;;14.60;100.00;100090.59;4980466;28;21421;-80
2023/07/30 04:34:23;;;;;;;15.90;9.10;;;;;;;14.63;100.00;100100.13;4993022;28;20439;-81
2023/07/30 04:36:51;;;;;;;14.10;9.00;;;;;;;14.62;100.00;100098.47;4974679;28;20461;-81
2023/07/30 04:39:26;;;;;;;15.50;9.48;;;;;;;14.65;100.00;100100.59;4977710;28;21033;-81
2023/07/30 04:41:59;;;;;;;16.38;8.80;;;;;;;14.66;100.00;100101.41;4973745;28;20443;-80
2023/07/30 04:44:33;;;;;;;14.13;9.00;;;;;;;14.80;100.00;100102.03;4974362;28;20424;-81
2023/07/30 04:47:08;;;;;;;14.32;9.02;;;;;;;14.79;100.00;100098.50;4978418;28;20515;-80
2023/07/30 04:49:40;;;;;;;16.10;9.27;;;;;;;14.83;100.00;100101.44;5010013;28;20451;-81
2023/07/30 04:52:08;;;;;;;15.68;9.10;;;;;;;14.82;100.00;100093.50;4994789;28;20440;-80
2023/07/30 04:54:43;;;;;;;14.45;8.90;;;;;;;14.89;100.00;100097.38;5010974;28;20984;-81
2023/07/30 04:57:17;;;;;;;17.33;8.52;;;;;;;14.90;100.00;100089.97;4978386;28;20424;-80
2023/07/30 04:59:50;;;;;;;17.52;9.50;;;;;;;14.93;100.00;100101.09;4977125;28;21142;-80
2023/07/30 05:02:23;;;;;;;16.43;8.63;;;;;;;14.87;100.00;100096.09;4972849;28;20438;-80
2023/07/30 05:04:56;;;;;;;15.25;8.98;;;;;;;14.94;100.00;100097.22;4974382;28;20442;-80
2023/07/30 05:07:30;;;;;;;16.02;9.18;;;;;;;14.98;100.00;100096.56;4978640;28;21205;-80
2023/07/30 05:09:59;;;;;;;15.93;8.68;;;;;;;15.05;100.00;100088.66;4978307;28;20416;-80
2023/07/30 05:12:27;;;;;;;12.15;8.05;;;;;;;15.21;100.00;100091.72;4980364;28;20788;-80
2023/07/30 05:15:00;;;;;;;14.27;7.95;;;;;;;15.38;100.00;100093.59;4979377;28;20433;-80
2023/07/30 05:17:28;;;;;;;14.30;7.80;;;;;;;15.97;100.00;100093.72;4994690;28;20445;-81
2023/07/30 05:19:56;;;;;;;13.43;7.53;;;;;;;16.29;100.00;100093.38;4976842;28;20432;-80
2023/07/30 05:22:25;;;;;;;11.60;7.10;;;;;;;16.74;100.00;100098.22;4980169;28;20435;-81
2023/07/30 05:24:59;;;;;;;11.37;5.97;;;;;;;17.63;100.00;100113.53;4978296;28;20449;-80
2023/07/30 05:27:32;;;;;;;10.13;6.15;;;;;;;18.09;100.00;100124.53;4980488;28;20430;-80
2023/07/30 05:30:07;;;;;;;10.90;5.47;;;;;;;18.47;100.00;100136.31;4979114;28;20453;-80
2023/07/30 05:32:40;;;;;;;10.57;5.63;;;;;;;18.85;100.00;100132.31;4979085;28;20436;-80
2023/07/30 05:35:13;;;;;;;9.98;5.75;;;;;;;18.74;100.00;100136.72;4993936;28;20440;-80
2023/07/30 05:37:46;;;;;;;9.35;5.18;;;;;;;18.21;100.00;100131.19;4980135;28;20941;-80
2023/07/30 05:40:16;;;;;;;9.23;5.53;;;;;;;17.94;100.00;100122.44;4977533;28;20453;-80
2023/07/30 05:42:49;;;;;;;10.52;5.50;;;;;;;17.66;100.00;100121.16;4977908;28;20441;-80
2023/07/30 05:45:22;;;;;;;13.23;5.68;;;;;;;17.23;100.00;100114.13;4979120;28;20506;-80
2023/07/30 05:47:56;;;;;;;13.25;5.80;;;;;;;16.72;100.00;100110.69;5003175;28;20434;-79
2023/07/30 05:50:24;;;;;;;12.05;5.68;;;;;;;16.48;100.00;100106.66;4975451;28;20436;-79
2023/07/30 05:52:57;;;;;;;13.05;6.10;;;;;;;16.51;100.00;100099.72;4980763;28;20453;-79
2023/07/30 05:55:31;;;;;;;10.83;5.90;;;;;;;16.44;100.00;100092.00;4980572;28;20443;-80
2023/07/30 05:58:04;;;;;;;12.00;6.13;;;;;;;16.36;100.00;100098.34;4974542;28;20928;-80
2023/07/30 06:00:38;;;;;;;12.15;6.00;;;;;;;16.40;100.00;100100.09;4980665;28;20436;-78
2023/07/30 06:03:11;;;;;;;12.07;6.22;;;;;;;16.35;100.00;100097.56;4992762;28;20428;-78
2023/07/30 06:05:43;;;;;;;11.40;6.00;;;;;;;16.30;100.00;100097.75;4979802;28;20874;-79
2023/07/30 06:08:11;;;;;;;12.70;6.20;;;;;;;16.31;100.00;100102.91;4973047;28;20422;-79
2023/07/30 06:10:46;;;;;;;13.47;5.93;;;;;;;16.22;100.00;100104.88;4980889;28;20839;-78
2023/07/30 06:13:22;;;;;;;11.73;6.15;;;;;;;16.28;100.00;100102.75;4983572;28;20433;-79
2023/07/30 06:15:50;;;;;;;14.02;6.30;;;;;;;16.33;100.00;100103.34;4977834;28;20444;-79
2023/07/30 06:18:23;;;;;;;14.88;6.40;;;;;;;16.13;100.00;100098.66;4979607;28;20792;-79
2023/07/30 06:20:56;;;;;;;18.65;6.40;;;;;;;16.02;100.00;100102.91;4980860;28;20430;-78
2023/07/30 06:23:25;;;;;;;13.48;6.32;;;;;;;16.04;100.00;100095.94;4980630;28;20927;-78
2023/07/30 06:25:54;;;;;;;15.05;6.13;;;;;;;16.12;100.00;100103.31;4977472;28;20434;-78
2023/07/30 06:28:23;;;;;;;13.88;6.25;;;;;;;16.32;100.00;100095.44;4980965;28;20431;-78
2023/07/30 06:30:56;;;;;;;15.77;6.30;;;;;;;16.43;100.00;100091.19;4978461;28;20777;-79
2023/07/30 06:33:24;;;;;;;13.50;6.13;;;;;;;16.61;100.00;100100.13;4982811;28;20416;-78
2023/07/30 06:35:57;;;;;;;15.45;6.50;;;;;;;16.64;100.00;100090.38;4981476;28;21269;-78
2023/07/30 06:38:30;;;;;;;15.63;6.50;;;;;;;16.63;100.00;100091.53;4974901;28;20440;-80
2023/07/30 06:41:05;;;;;;;17.03;6.47;;;;;;;16.65;100.00;100097.50;4986494;28;20430;-79
2023/07/30 06:43:33;;;;;;;12.50;6.53;;;;;;;16.77;100.00;100099.50;4976235;28;20450;-79
2023/07/30 06:46:07;;;;;;;14.18;6.78;;;;;;;16.76;100.00;100106.94;4979204;28;20436;-78
2023/07/30 06:48:40;;;;;;;14.65;7.03;;;;;;;16.84;100.00;100100.56;5011423;28;21040;-78
2023/07/30 06:51:12;;;;;;;11.15;6.30;;;;;;;16.99;100.00;100110.16;4980617;28;20423;-78
2023/07/30 06:53:40;;;;;;;15.20;6.93;;;;;;;16.82;100.00;100110.28;4978154;28;20445;-78
2023/07/30 06:56:15;;;;;;;14.25;7.03;;;;;;;17.10;100.00;100104.25;4980830;28;20919;-78
2023/07/30 06:58:48;;;;;;;14.07;7.40;;;;;;;17.32;100.00;100103.06;4973380;28;20415;-78
2023/07/30 07:01:21;;;;;;;14.95;7.05;;;;;;;17.05;100.00;100119.00;4978900;28;20934;-78
2023/07/30 07:03:54;;;;;;;17.80;7.60;;;;;;;17.19;100.00;100104.16;4980609;28;20438;-79
2023/07/30 07:06:23;;;;;;;19.13;8.20;;;;;;;16.89;100.00;100120.75;4981759;28;20412;-78
2023/07/30 07:08:56;;;;;;;20.15;8.27;;;;;;;17.20;100.00;100114.81;4981885;28;20429;-78
2023/07/30 07:11:31;;;;;;;17.43;7.80;;;;;;;17.15;100.00;100118.59;4978140;28;20989;-79
2023/07/30 07:13:59;;;;;;;15.93;7.63;;;;;;;17.08;100.00;100131.28;4982896;28;20439;-78
2023/07/30 07:16:27;;;;;;;18.90;7.43;;;;;;;17.16;100.00;100127.63;4980256;28;20427;-80
2023/07/30 07:19:00;;;;;;;17.57;7.90;;;;;;;17.34;100.00;100131.84;4982399;28;20814;-81
2023/07/30 07:21:29;;;;;;;16.35;7.90;;;;;;;17.32;100.00;100128.63;5011572;28;20434;-82
2023/07/30 07:24:02;;;;;;;16.55;7.90;;;;;;;17.38;100.00;100131.16;4977057;28;20443;-82
2023/07/30 07:26:36;;;;;;;16.07;7.60;;;;;;;17.23;100.00;100149.88;4979055;28;20452;-82
2023/07/30 07:29:10;;;;;;;18.27;7.85;;;;;;;17.25;100.00;100149.53;4977693;28;21585;-81
2023/07/30 07:31:43;;;;;;;17.67;8.07;;;;;;;17.08;100.00;100145.84;4975041;28;20426;-81
2023/07/30 07:34:16;;;;;;;17.15;7.50;;;;;;;17.31;100.00;100142.72;4979763;28;20440;-81
2023/07/30 07:36:50;;;;;;;16.02;8.40;;;;;;;17.42;100.00;100141.13;4995182;28;20430;-81
2023/07/30 07:39:23;;;;;;;16.10;8.40;;;;;;;17.50;100.00;100145.75;4976162;28;20439;-82
2023/07/30 07:41:52;;;;;;;18.87;8.13;;;;;;;17.69;100.00;100147.19;4977329;28;20434;-82
2023/07/30 07:44:25;;;;;;;17.00;8.27;;;;;;;17.81;100.00;100141.66;4979512;28;20437;-81
2023/07/30 07:46:58;;;;;;;15.82;7.40;;;;;;;17.67;100.00;100144.75;4980060;28;20426;-81
2023/07/30 07:49:32;;;;;;;15.65;7.15;;;;;;;17.59;100.00;100151.13;4976649;28;20441;-81
2023/07/30 07:52:05;;;;;;;15.87;7.30;;;;;;;17.53;100.00;100146.22;4979055;28;20429;-80
2023/07/30 07:54:39;;;;;;;14.55;7.78;;;;;;;17.81;100.00;100154.63;4980048;28;20430;-82
2023/07/30 07:57:13;;;;;;;19.27;8.00;;;;;;;17.62;100.00;100160.66;4979823;28;20447;-81
2023/07/30 07:59:46;;;;;;;16.58;7.55;;;;;;;17.54;100.00;100159.63;4978485;28;20440;-82
2023/07/30 08:02:20;;;;;;;16.83;7.95;;;;;;;17.69;100.00;100144.44;4975937;28;20543;-81
2023/07/30 08:04:53;;;;;;;15.38;7.20;;;;;;;17.58;100.00;100148.72;4980157;28;20522;-81
2023/07/30 08:07:26;;;;;;;17.02;7.68;;;;;;;17.67;100.00;100149.44;4978079;28;20445;-81
2023/07/30 08:09:59;;;;;;;17.45;7.47;;;;;;;17.81;100.00;100151.88;4978306;28;20450;-83
2023/07/30 08:12:29;;;;;;;15.45;7.10;;;;;;;17.74;100.00;100137.88;4981399;28;20939;-81
2023/07/30 08:15:02;;;;;;;17.20;7.63;;;;;;;17.81;100.00;100143.63;4979327;28;20440;-80
2023/07/30 08:17:35;;;;;;;19.65;7.45;;;;;;;18.07;100.00;100154.34;4982346;28;20455;-80
2023/07/30 08:20:05;;;;;;;20.27;7.63;;;;;;;18.14;100.00;100140.00;5005278;28;20436;-82
2023/07/30 08:22:38;;;;;;;13.98;6.35;;;;;;;18.07;100.00;100151.59;4975861;28;20453;-81
2023/07/30 08:25:12;;;;;;;17.53;6.70;;;;;;;18.01;100.00;100148.25;4988858;28;20439;-80
2023/07/30 08:27:46;;;;;;;14.90;5.95;;;;;;;17.90;100.00;100154.53;4987012;28;20436;-82
2023/07/30 08:30:15;;;;;;;13.43;5.93;;;;;;;17.71;100.00;100157.84;4976443;28;20914;-82
2023/07/30 08:32:48;;;;;;;15.02;5.78;;;;;;;17.71;100.00;100160.59;4977992;28;20808;-81
2023/07/30 08:35:21;;;;;;;17.48;6.00;;;;;;;17.66;100.00;100154.16;4978855;28;20420;-81
2023/07/30 08:37:55;;;;;;;13.80;5.78;;;;;;;17.68;100.00;100159.31;4977194;28;20426;-82
2023/07/30 08:40:28;;;;;;;15.38;6.53;;;;;;;17.74;100.00;100144.19;4980542;28;20431;-82
2023/07/30 08:43:03;;;;;;;14.13;5.47;;;;;;;17.79;100.00;100154.97;4981569;28;20439;-81
2023/07/30 08:45:36;;;;;;;11.48;5.40;;;;;;;17.97;100.00;100158.34;4977701;28;20914;-82
2023/07/30 08:48:09;;;;;;;14.07;5.93;;;;;;;18.19;100.00;100145.28;4977902;28;20426;-82
2023/07/30 08:50:44;;;;;;;14.60;5.90;;;;;;;18.46;100.00;100148.47;4973488;28;20442;-82
2023/07/30 08:53:17;;;;;;;13.48;4.90;;;;;;;18.43;100.00;100158.22;4973269;28;20444;-86
2023/07/30 08:55:51;;;;;;;12.70;5.10;;;;;;;18.61;100.00;100152.47;4975679;28;20444;-81
2023/07/30 08:58:27;;;;;;;19.05;5.35;;;;;;;18.77;100.00;100158.09;4977787;28;20441;-81
2023/07/30 09:01:07;;;;;;;15.20;5.30;;;;;;;18.93;100.00;100156.22;4974815;28;20447;-81
2023/07/30 09:03:41;;;;;;;12.38;4.80;;;;;;;19.22;100.00;100154.25;4988035;28;20436;-79
2023/07/30 09:06:09;;;;;;;15.55;5.25;;;;;;;18.88;100.00;100150.97;4974344;28;20432;-80
2023/07/30 09:08:42;;;;;;;9.50;4.23;;;;;;;18.68;100.00;100160.97;4973336;28;20772;-81
2023/07/30 09:11:12;;;;;;;20.55;4.47;;;;;;;18.84;100.00;100166.56;4979362;28;20413;-81
2023/07/30 09:13:47;;;;;;;13.32;4.13;;;;;;;18.97;100.00;100170.09;4975925;28;20801;-81
2023/07/30 09:16:16;;;;;;;12.07;4.50;;;;;;;19.01;100.00;100154.47;4999989;28;20442;-81
2023/07/30 09:18:46;;;;;;;11.68;3.80;;;;;;;18.91;100.00;100152.22;4979674;28;20435;-82
2023/07/30 09:21:19;;;;;;;9.00;3.40;;;;;;;19.03;100.00;100175.03;4976758;28;20900;-82
2023/07/30 09:23:52;;;;;;;11.25;3.50;;;;;;;19.14;100.00;100166.25;5009036;28;20483;-81
2023/07/30 09:26:21;;;;;;;11.20;3.60;;;;;;;18.97;100.00;100170.09;4979149;28;20427;-82
2023/07/30 09:28:57;;;;;;;12.48;3.92;;;;;;;19.02;100.00;100176.19;4987343;28;20455;-81
2023/07/30 09:31:25;;;;;;;11.83;3.33;;;;;;;19.24;100.00;100170.47;5004303;28;20499;-82
2023/07/30 09:33:59;;;;;;;11.27;3.50;;;;;;;19.22;100.00;100165.31;4981473;28;20424;-83
2023/07/30 09:36:32;;;;;;;11.80;3.45;;;;;;;19.25;100.00;100166.56;4979692;28;20435;-83
2023/07/30 09:39:14;;;;;;;11.50;3.58;;;;;;;19.58;100.00;100171.00;4978880;28;20947;-81
2023/07/30 09:41:48;;;;;;;12.15;3.70;;;;;;;19.61;100.00;100167.53;4977281;28;20494;-82
2023/07/30 09:44:22;;;;;;;10.60;3.00;;;;;;;19.61;100.00;100176.63;4993470;28;20444;-82
2023/07/30 09:46:55;;;;;;;11.30;3.05;;;;;;;19.73;100.00;100172.97;5006353;28;20781;-82
2023/07/30 09:49:29;;;;;;;12.05;3.40;;;;;;;19.65;100.00;100182.22;5001204;28;20456;-82
2023/07/30 09:51:58;;;;;;;10.77;3.00;;;;;;;19.31;100.00;100174.25;4996143;28;20437;-83
2023/07/30 09:54:32;;;;;;;11.23;3.17;;;;;;;19.51;100.00;100177.94;4998811;28;20802;-85
2023/07/30 09:57:06;;;;;;;11.48;2.80;;;;;;;19.38;100.00;100173.63;5002537;28;20439;-81
2023/07/30 09:59:40;;;;;;;10.23;3.05;;;;;;;19.17;100.00;100180.16;5008481;28;20439;-83
2023/07/30 10:02:14;;;;;;;11.35;3.30;;;;;;;18.94;100.00;100179.09;4997703;28;20428;-82
2023/07/30 10:04:51;;;;;;;8.52;2.80;;;;;;;18.96;100.00;100180.34;4998368;28;20433;-82
2023/07/30 10:07:27;;;;;;;16.67;7.68;;;;;;;19.13;100.00;100181.22;5000593;28;20424;-82
2023/07/30 10:09:59;;;;;;;10.33;2.70;;;;;;;19.12;100.00;100185.13;5004939;28;20420;-82
2023/07/30 10:12:35;;;;;;;13.77;4.22;;;;;;;19.16;100.00;100188.78;5003179;28;20447;-82
2023/07/30 10:15:07;;;;;;;14.10;3.20;;;;;;;19.12;100.00;100194.19;4986908;28;20432;-82
2023/07/30 10:17:40;;;;;;;9.48;3.03;;;;;;;19.35;100.00;100183.41;4992997;28;20440;-83
2023/07/30 10:20:27;;;;;;;12.80;2.97;;;;;;;19.32;100.00;100184.13;4985599;28;20420;-82
2023/07/30 10:23:01;;;;;;;11.40;3.35;;;;;;;19.34;100.00;100183.78;4978806;28;20429;-83
2023/07/30 10:25:44;;;;;;;10.10;3.00;;;;;;;19.29;100.00;100192.28;4981298;28;21066;-82
2023/07/30 10:28:28;;;;;;;10.55;2.90;;;;;;;19.04;100.00;100189.63;4981345;28;20432;-83
2023/07/30 10:31:08;;;;;;;13.68;3.17;;;;;;;19.12;100.00;100194.19;4984481;28;20436;-83
2023/07/30 10:33:50;;;;;;;11.70;2.80;;;;;;;19.12;100.00;100201.66;4985105;28;21160;-83
2023/07/30 10:36:32;;;;;;;11.38;3.00;;;;;;;19.26;100.00;100193.78;4983604;28;20843;-82
2023/07/30 10:39:11;;;;;;;10.55;3.10;;;;;;;19.12;100.00;100202.47;4980467;28;21377;-84
2023/07/30 10:41:45;;;;;;;10.02;3.13;;;;;;;19.07;100.00;100188.94;4981214;28;20436;-84
2023/07/30 10:44:25;;;;;;;10.65;3.10;;;;;;;19.11;100.00;100198.13;4981036;28;20452;-83
2023/07/30 10:46:55;;;;;;;12.07;3.20;;;;;;;18.95;100.00;100192.53;4981346;28;20419;-83
2023/07/30 10:49:28;;;;;;;9.75;3.08;;;;;;;18.90;100.00;100192.75;4980964;28;20428;-83
2023/07/30 10:52:02;;;;;;;10.02;2.83;;;;;;;19.05;100.00;100198.72;4983590;28;20440;-84
2023/07/30 10:54:34;;;;;;;10.02;3.03;;;;;;;18.90;100.00;100189.22;4989796;28;20467;-82
2023/07/30 10:57:07;;;;;;;12.48;3.00;;;;;;;18.89;100.00;100195.88;4988594;28;20482;-83
2023/07/30 10:59:40;;;;;;;8.07;2.80;;;;;;;18.72;100.00;100194.16;4981656;28;20433;-82
2023/07/30 11:02:16;;;;;;;11.20;3.10;;;;;;;18.82;100.00;100204.69;4980592;28;20433;-82
2023/07/30 11:04:50;;;;;;;7.25;2.97;;;;;;;19.15;100.00;100200.97;4981142;28;20489;-84
2023/07/30 11:07:23;;;;;;;10.77;3.13;;;;;;;19.11;100.00;100200.06;4985668;28;20429;-82
2023/07/30 11:10:01;;;;;;;8.88;2.80;;;;;;;19.25;100.00;100200.47;4988025;28;20452;-84
2023/07/30 11:12:34;;;;;;;13.03;3.20;;;;;;;19.14;100.00;100204.88;4983790;28;20425;-82
2023/07/30 11:15:08;;;;;;;9.77;2.90;;;;;;;19.05;100.00;100205.00;4979390;28;20437;-84
2023/07/30 11:17:44;;;;;;;8.77;2.95;;;;;;;19.08;100.00;100198.78;4959643;28;20462;-84
2023/07/30 11:20:23;;;;;;;7.93;2.80;;;;;;;19.12;100.00;100201.66;4974794;28;20458;-84
2023/07/30 11:22:51;;;;;;;11.75;3.20;;;;;;;19.01;100.00;100213.16;4976998;28;20434;-83
2023/07/30 11:25:19;;;;;;;11.52;3.47;;;;;;;19.08;100.00;100206.28;4974603;28;21163;-83
2023/07/30 11:27:52;;;;;;;17.67;4.40;;;;;;;19.11;100.00;100198.13;4978279;28;20434;-83
2023/07/30 11:30:28;;;;;;;8.70;3.15;;;;;;;18.90;100.00;100209.28;4969744;28;20430;-83
2023/07/30 11:33:03;;;;;;;9.95;2.88;;;;;;;19.15;100.00;100207.28;4965223;28;20439;-82
2023/07/30 11:35:31;;;;;;;11.40;2.80;;;;;;;19.10;100.00;100196.50;4967937;28;20448;-82
2023/07/30 11:37:59;;;;;;;10.23;3.10;;;;;;;19.06;100.00;100195.59;4972813;28;20424;-81